createdAt,value
2018-03-07T00:00:19.979Z,46.10
2018-03-07T00:02:54.959Z,45.67
2018-03-07T00:05:30.110Z,45.53
2018-03-07T00:08:05.382Z,46.13
2018-03-07T00:10:40.862Z,48.03
2018-03-07T00:13:16.082Z,46.40
2018-03-07T00:15:51.042Z,46.33
2018-03-07T00:18:26.254Z,44.80
2018-03-07T00:21:01.398Z,47.17
2018-03-07T00:23:36.507Z,44.90
2018-03-07T00:26:12.039Z,45.67
2018-03-07T00:28:47.023Z,46.50
2018-03-07T00:31:22.850Z,48.43
2018-03-07T00:33:57.308Z,48.77
2018-03-07T00:36:32.358Z,47.10
2018-03-07T00:39:07.462Z,47.60
2018-03-07T00:41:42.965Z,44.47
2018-03-07T00:44:18.035Z,44.40
2018-03-07T00:46:52.982Z,46.20
2018-03-07T00:49:28.046Z,48.93
2018-03-07T00:52:03.054Z,48.00
2018-03-07T00:54:38.108Z,49.77
2018-03-07T00:57:13.059Z,48.40
2018-03-07T00:59:48.146Z,48.07
2018-03-07T01:02:23.093Z,46.63
2018-03-07T01:04:58.045Z,45.43
2018-03-07T01:07:33.099Z,47.07
2018-03-07T01:10:08.558Z,47.90
2018-03-07T01:12:43.330Z,46.43
2018-03-07T01:15:18.262Z,41.10
2018-03-07T01:17:53.009Z,46.10
2018-03-07T01:20:28.203Z,46.37
2018-03-07T01:23:03.034Z,45.58
2018-03-07T01:25:38.065Z,47.57
2018-03-07T01:28:13.407Z,47.75
2018-03-07T01:30:48.222Z,45.77
2018-03-07T01:33:23.202Z,44.22
2018-03-07T01:35:58.494Z,47.73
2018-03-07T01:38:33.380Z,48.37
2018-03-07T01:41:08.622Z,46.50
2018-03-07T01:43:43.542Z,46.37
2018-03-07T01:46:18.550Z,46.60
2018-03-07T01:48:53.610Z,46.90
2018-03-07T01:51:39.610Z,43.83
2018-03-07T01:54:14.444Z,47.47
2018-03-07T01:56:49.517Z,47.73
2018-03-07T01:59:25.278Z,48.20
2018-03-07T02:02:01.478Z,44.20
2018-03-07T02:04:36.114Z,44.13
2018-03-07T02:07:10.749Z,44.10
2018-03-07T02:09:45.698Z,43.23
2018-03-07T02:12:20.737Z,44.73
2018-03-07T02:14:55.611Z,48.80
2018-03-07T02:17:31.922Z,45.30
2018-03-07T02:20:07.466Z,44.07
2018-03-07T02:22:42.422Z,46.47
2018-03-07T02:25:17.858Z,45.43
2018-03-07T02:27:52.716Z,45.80
2018-03-07T02:30:27.744Z,46.60
2018-03-07T02:33:02.595Z,49.30
2018-03-07T02:35:37.379Z,47.80
2018-03-07T02:38:12.535Z,40.08
2018-03-07T02:40:47.345Z,46.73
2018-03-07T02:43:22.250Z,46.90
2018-03-07T02:45:56.603Z,48.50
2018-03-07T02:48:31.663Z,47.67
2018-03-07T02:51:06.598Z,48.33
2018-03-07T02:53:41.698Z,47.60
2018-03-07T02:56:16.287Z,50.70
2018-03-07T02:58:51.323Z,46.83
2018-03-07T03:01:26.435Z,46.77
2018-03-07T03:04:01.672Z,46.80
2018-03-07T03:06:36.547Z,48.97
2018-03-07T03:09:11.794Z,49.20
2018-03-07T03:11:47.306Z,47.03
2018-03-07T03:14:22.311Z,46.13
2018-03-07T03:16:57.354Z,48.40
2018-03-07T03:19:32.322Z,48.17
2018-03-07T03:22:07.597Z,46.65
2018-03-07T03:24:42.494Z,45.83
2018-03-07T03:27:17.764Z,50.57
2018-03-07T03:29:52.706Z,50.10
2018-03-07T03:32:27.798Z,46.30
2018-03-07T03:35:02.798Z,45.73
2018-03-07T03:37:37.922Z,46.20
2018-03-07T03:40:13.415Z,46.72
2018-03-07T03:42:48.603Z,44.50
2018-03-07T03:45:23.482Z,49.17
2018-03-07T03:47:58.462Z,45.33
2018-03-07T03:50:33.590Z,46.40
2018-03-07T03:53:08.675Z,47.40
2018-03-07T03:55:43.726Z,46.83
2018-03-07T03:58:19.123Z,44.00
2018-03-07T04:00:54.546Z,44.70
2018-03-07T04:03:29.633Z,49.60
2018-03-07T04:06:04.718Z,48.97
2018-03-07T04:08:39.795Z,49.33
2018-03-07T04:11:20.918Z,45.90
2018-03-07T04:13:55.451Z,45.10
2018-03-07T04:16:30.494Z,45.17
2018-03-07T04:19:05.797Z,47.80
2018-03-07T04:21:40.658Z,49.47
2018-03-07T04:24:15.888Z,44.57
2018-03-07T04:26:50.547Z,46.67
2018-03-07T04:29:26.550Z,45.37
2018-03-07T04:32:01.917Z,50.47
2018-03-07T04:34:36.782Z,47.77
2018-03-07T04:37:11.740Z,48.00
2018-03-07T04:39:46.749Z,44.87
2018-03-07T04:42:21.123Z,47.23
2018-03-07T04:44:56.505Z,46.78
2018-03-07T04:47:31.326Z,46.77
2018-03-07T04:50:06.826Z,42.97
2018-03-07T04:52:41.863Z,47.10
2018-03-07T04:55:16.786Z,46.83
2018-03-07T04:57:51.738Z,47.07
2018-03-07T05:00:26.207Z,46.37
2018-03-07T05:03:01.965Z,47.27
2018-03-07T05:05:37.703Z,47.30
2018-03-07T05:08:13.079Z,46.30
2018-03-07T05:10:47.961Z,49.03
2018-03-07T05:13:22.842Z,48.70
2018-03-07T05:15:57.951Z,47.67
2018-03-07T05:18:33.022Z,46.67
2018-03-07T05:21:07.976Z,51.27
2018-03-07T05:23:42.977Z,50.93
2018-03-07T05:26:18.044Z,50.30
2018-03-07T05:28:53.477Z,52.38
2018-03-07T05:31:28.618Z,48.20
2018-03-07T05:34:03.699Z,48.22
2018-03-07T05:36:38.791Z,50.77
2018-03-07T05:39:14.267Z,47.70
2018-03-07T05:41:49.769Z,47.67
2018-03-07T05:44:24.689Z,46.00
2018-03-07T05:46:59.843Z,47.17
2018-03-07T05:49:34.935Z,47.27
2018-03-07T05:52:09.890Z,46.80
2018-03-07T05:54:45.054Z,47.20
2018-03-07T05:57:20.118Z,46.33
2018-03-07T05:59:55.629Z,48.38
2018-03-07T06:02:30.351Z,46.77
2018-03-07T06:05:05.954Z,48.80
2018-03-07T06:07:40.818Z,47.90
2018-03-07T06:10:16.005Z,47.13
2018-03-07T06:12:51.091Z,48.57
2018-03-07T06:15:26.704Z,51.72
2018-03-07T06:18:02.206Z,54.57
2018-03-07T06:20:37.763Z,52.87
2018-03-07T06:23:12.825Z,53.40
2018-03-07T06:25:47.833Z,55.40
2018-03-07T06:28:23.082Z,50.90
2018-03-07T06:30:58.342Z,51.70
2018-03-07T06:33:33.286Z,49.30
2018-03-07T06:36:08.995Z,48.33
2018-03-07T06:38:44.500Z,50.30
2018-03-07T06:41:19.794Z,51.03
2018-03-07T06:43:54.779Z,49.50
2018-03-07T06:46:29.930Z,54.30
2018-03-07T06:49:05.223Z,51.07
2018-03-07T06:51:40.821Z,47.38
2018-03-07T06:54:15.970Z,52.92
2018-03-07T06:56:50.894Z,50.77
2018-03-07T06:59:25.834Z,48.50
2018-03-07T07:02:02.402Z,47.65
2018-03-07T07:04:37.915Z,46.60
2018-03-07T07:07:12.903Z,47.17
2018-03-07T07:09:47.978Z,47.67
2018-03-07T07:12:22.938Z,48.10
2018-03-07T07:14:57.886Z,47.30
2018-03-07T07:17:32.938Z,52.17
2018-03-07T07:20:07.314Z,48.47
2018-03-07T07:22:42.342Z,49.47
2018-03-07T07:25:18.044Z,48.72
2018-03-07T07:27:53.315Z,50.77
2018-03-07T07:30:28.422Z,45.60
2018-03-07T07:33:03.396Z,48.00
2018-03-07T07:35:38.985Z,48.57
2018-03-07T07:38:14.131Z,46.67
2018-03-07T07:40:48.986Z,50.27
2018-03-07T07:43:24.008Z,50.83
2018-03-07T07:45:59.139Z,49.03
2018-03-07T07:48:33.991Z,51.37
2018-03-07T07:51:08.946Z,49.15
2018-03-07T07:53:44.004Z,48.70
2018-03-07T07:56:19.212Z,49.67
2018-03-07T07:58:53.983Z,52.40
2018-03-07T08:01:29.282Z,51.73
2018-03-07T08:04:04.448Z,50.93
2018-03-07T08:06:40.030Z,53.85
2018-03-07T08:09:15.260Z,56.70
2018-03-07T08:11:50.235Z,50.17
2018-03-07T08:14:25.398Z,51.30
2018-03-07T08:17:00.795Z,50.17
2018-03-07T08:19:35.466Z,51.73
2018-03-07T08:22:10.256Z,48.23
2018-03-07T08:24:45.338Z,51.57
2018-03-07T08:27:20.483Z,51.00
2018-03-07T08:29:55.314Z,49.20
2018-03-07T08:32:30.173Z,53.47
2018-03-07T08:35:04.862Z,52.17
2018-03-07T08:37:40.046Z,50.57
2018-03-07T08:40:15.438Z,50.63
2018-03-07T08:42:50.427Z,53.93
2018-03-07T08:45:25.175Z,52.40
2018-03-07T08:47:59.643Z,51.30
2018-03-07T08:50:34.792Z,52.30
2018-03-07T08:53:09.666Z,49.43
2018-03-07T08:55:45.226Z,55.40
2018-03-07T08:58:20.250Z,52.27
2018-03-07T09:00:55.261Z,50.37
2018-03-07T09:03:30.256Z,51.23
2018-03-07T09:06:04.599Z,51.40
2018-03-07T09:08:40.056Z,52.42
2018-03-07T09:11:15.478Z,52.33
2018-03-07T09:13:50.640Z,51.20
2018-03-07T09:16:29.196Z,51.07
2018-03-07T09:19:04.408Z,51.92
2018-03-07T09:21:39.294Z,51.90
2018-03-07T09:24:14.406Z,54.17
2018-03-07T09:26:49.358Z,52.00
2018-03-07T09:29:24.137Z,52.90
2018-03-07T09:31:59.383Z,51.13
2018-03-07T09:34:34.368Z,49.40
2018-03-07T09:37:09.371Z,54.20
2018-03-07T09:39:44.431Z,53.87
2018-03-07T09:42:19.265Z,50.20
2018-03-07T09:44:54.307Z,52.10
2018-03-07T09:47:29.507Z,50.57
2018-03-07T09:50:03.870Z,51.97
2018-03-07T09:52:38.506Z,49.63
2018-03-07T09:55:14.014Z,53.00
2018-03-07T09:57:49.284Z,52.88
2018-03-07T10:00:23.883Z,52.90
2018-03-07T10:02:59.234Z,52.45
2018-03-07T10:05:34.362Z,55.30
2018-03-07T10:08:09.530Z,51.37
2018-03-07T10:10:44.262Z,54.40
2018-03-07T10:13:19.516Z,54.63
2018-03-07T10:15:54.654Z,52.83
2018-03-07T10:18:29.723Z,52.63
2018-03-07T10:21:04.832Z,52.90
2018-03-07T10:23:39.858Z,52.40
2018-03-07T10:26:15.280Z,56.43
2018-03-07T10:28:50.570Z,56.20
2018-03-07T10:31:25.650Z,57.33
2018-03-07T10:34:00.707Z,56.67
2018-03-07T10:36:35.534Z,56.00
2018-03-07T10:39:10.634Z,56.40
2018-03-07T10:41:45.417Z,55.90
2018-03-07T10:44:20.503Z,60.45
2018-03-07T10:46:55.394Z,56.67
2018-03-07T10:49:30.647Z,56.67
2018-03-07T10:52:04.959Z,56.60
2018-03-07T10:54:40.558Z,55.97
2018-03-07T10:57:15.602Z,56.28
2018-03-07T10:59:50.548Z,57.50
2018-03-07T11:02:25.862Z,54.93
2018-03-07T11:05:02.775Z,55.90
2018-03-07T11:07:37.395Z,61.37
2018-03-07T11:10:12.699Z,55.58
2018-03-07T11:12:47.637Z,59.80
2018-03-07T11:15:22.370Z,59.58
2018-03-07T11:17:57.288Z,52.53
2018-03-07T11:20:31.943Z,53.57
2018-03-07T11:23:06.091Z,60.03
2018-03-07T11:25:41.284Z,58.23
2018-03-07T11:28:16.802Z,57.83
2018-03-07T11:30:51.607Z,56.80
2018-03-07T11:33:26.094Z,56.90
2018-03-07T11:36:01.004Z,57.53
2018-03-07T11:38:35.942Z,55.83
2018-03-07T11:41:11.080Z,57.40
2018-03-07T11:43:45.603Z,59.57
2018-03-07T11:46:20.598Z,56.95
2018-03-07T11:48:55.646Z,54.87
2018-03-07T11:51:30.734Z,55.67
2018-03-07T11:54:05.917Z,58.00
2018-03-07T11:56:40.947Z,55.37
2018-03-07T11:59:15.596Z,53.35
2018-03-07T12:01:50.624Z,54.60
2018-03-07T12:04:25.739Z,55.00
2018-03-07T12:07:00.576Z,55.07
2018-03-07T12:09:35.742Z,58.33
2018-03-07T12:12:10.891Z,57.50
2018-03-07T12:14:46.474Z,55.40
2018-03-07T12:17:21.649Z,57.57
2018-03-07T12:19:56.647Z,56.80
2018-03-07T12:22:31.690Z,55.60
2018-03-07T12:25:06.834Z,56.30
2018-03-07T12:27:41.954Z,56.10
2018-03-07T12:30:16.901Z,56.87
2018-03-07T12:32:52.218Z,55.27
2018-03-07T12:35:27.079Z,56.73
2018-03-07T12:38:02.971Z,57.90
2018-03-07T12:40:37.714Z,54.90
2018-03-07T12:43:12.892Z,58.75
2018-03-07T12:45:47.475Z,58.00
2018-03-07T12:48:22.746Z,56.67
2018-03-07T12:50:57.713Z,55.53
2018-03-07T12:53:32.655Z,59.80
2018-03-07T12:56:08.560Z,56.97
2018-03-07T12:58:43.731Z,55.70
2018-03-07T13:01:18.848Z,55.70
2018-03-07T13:03:53.904Z,57.47
2018-03-07T13:06:29.078Z,57.00
2018-03-07T13:09:03.171Z,59.93
2018-03-07T13:11:38.630Z,55.50
2018-03-07T13:14:13.679Z,56.45
2018-03-07T13:16:48.639Z,53.97
2018-03-07T13:19:23.648Z,52.70
2018-03-07T13:21:59.212Z,57.87
2018-03-07T13:24:34.867Z,56.20
2018-03-07T13:27:09.284Z,50.20
2018-03-07T13:29:44.771Z,52.20
2018-03-07T13:32:19.159Z,55.50
2018-03-07T13:34:53.766Z,54.57
2018-03-07T13:37:28.763Z,54.37
2018-03-07T13:40:10.727Z,55.23
2018-03-07T13:42:45.344Z,52.53
2018-03-07T13:45:20.810Z,51.85
2018-03-07T13:47:55.795Z,49.50
2018-03-07T13:50:30.903Z,52.33
2018-03-07T13:53:06.368Z,52.90
2018-03-07T13:55:41.052Z,52.17
2018-03-07T13:58:16.432Z,53.17
2018-03-07T14:00:51.010Z,55.33
2018-03-07T14:03:26.282Z,52.20
2018-03-07T14:06:01.292Z,52.80
2018-03-07T14:08:36.334Z,52.77
2018-03-07T14:11:12.190Z,55.67
2018-03-07T14:13:46.846Z,54.53
2018-03-07T14:16:22.053Z,53.97
2018-03-07T14:18:57.199Z,53.40
2018-03-07T14:21:31.836Z,55.83
2018-03-07T14:24:07.163Z,56.13
2018-03-07T14:26:41.793Z,54.33
2018-03-07T14:29:16.771Z,51.87
2018-03-07T14:31:51.834Z,53.70
2018-03-07T14:34:26.862Z,54.37
2018-03-07T14:37:03.227Z,52.90
2018-03-07T14:39:38.010Z,52.97
2018-03-07T14:42:13.218Z,51.40
2018-03-07T14:44:48.190Z,57.73
2018-03-07T14:47:22.834Z,51.05
2018-03-07T14:49:57.403Z,55.80
2018-03-07T14:52:32.900Z,51.83
2018-03-07T14:55:07.953Z,51.87
2018-03-07T14:57:42.967Z,54.03
2018-03-07T15:00:17.621Z,52.77
2018-03-07T15:02:53.106Z,55.07
2018-03-07T15:05:28.171Z,51.77
2018-03-07T15:08:03.300Z,49.50
2018-03-07T15:10:38.261Z,50.20
2018-03-07T15:13:13.217Z,51.40
2018-03-07T15:15:48.285Z,52.80
2018-03-07T15:18:22.905Z,51.60
2018-03-07T15:20:58.199Z,51.43
2018-03-07T15:23:33.267Z,58.23
2018-03-07T15:26:08.203Z,53.43
2018-03-07T15:28:43.790Z,48.83
2018-03-07T15:31:19.239Z,46.60
2018-03-07T15:33:54.104Z,48.07
2018-03-07T15:36:29.241Z,48.30
2018-03-07T15:39:03.287Z,48.00
2018-03-07T15:41:38.042Z,47.40
2018-03-07T15:44:13.104Z,47.33
2018-03-07T15:46:48.257Z,46.60
2018-03-07T15:49:22.914Z,45.30
2018-03-07T15:51:57.663Z,45.90
2018-03-07T15:54:32.147Z,48.07
2018-03-07T15:57:07.254Z,46.77
2018-03-07T15:59:42.222Z,47.17
2018-03-07T16:02:17.378Z,43.97
2018-03-07T16:04:52.898Z,42.80
2018-03-07T16:07:27.538Z,45.37
2018-03-07T16:10:03.460Z,44.50
2018-03-07T16:12:38.314Z,45.40
2018-03-07T16:15:13.339Z,42.20
2018-03-07T16:17:48.179Z,43.77
2018-03-07T16:20:23.284Z,47.17
2018-03-07T16:22:58.564Z,47.23
2018-03-07T16:25:34.051Z,44.70
2018-03-07T16:28:08.731Z,43.57
2018-03-07T16:30:44.244Z,44.10
2018-03-07T16:33:19.546Z,44.77
2018-03-07T16:35:54.147Z,42.87
2018-03-07T16:38:29.330Z,44.07
2018-03-07T16:41:04.392Z,40.80
2018-03-07T16:43:39.781Z,41.50
2018-03-07T16:46:14.638Z,44.45
2018-03-07T16:48:50.127Z,43.30
2018-03-07T16:51:24.906Z,44.20
2018-03-07T16:54:00.422Z,45.67
2018-03-07T16:56:35.414Z,49.23
2018-03-07T16:59:10.410Z,46.73
2018-03-07T17:01:45.367Z,54.53
2018-03-07T17:04:20.423Z,56.45
2018-03-07T17:06:55.612Z,64.80
2018-03-07T17:09:30.274Z,53.10
2018-03-07T17:12:05.478Z,50.93
2018-03-07T17:14:40.423Z,51.67
2018-03-07T17:17:15.393Z,46.47
2018-03-07T17:19:50.244Z,45.50
2018-03-07T17:22:25.295Z,44.23
2018-03-07T17:25:00.491Z,45.67
2018-03-07T17:27:35.116Z,44.08
2018-03-07T17:30:09.458Z,43.20
2018-03-07T17:32:45.720Z,44.58
2018-03-07T17:35:21.213Z,48.57
2018-03-07T17:37:56.168Z,45.88
2018-03-07T17:40:31.285Z,42.17
2018-03-07T17:43:06.675Z,43.20
2018-03-07T17:45:41.711Z,41.57
2018-03-07T17:48:16.350Z,43.70
2018-03-07T17:50:51.287Z,41.83
2018-03-07T17:53:26.262Z,43.50
2018-03-07T17:56:01.345Z,41.70
2018-03-07T17:58:36.845Z,42.03
2018-03-07T18:01:11.900Z,42.70
2018-03-07T18:03:46.788Z,43.00
2018-03-07T18:06:22.240Z,42.03
2018-03-07T18:08:57.511Z,42.50
2018-03-07T18:11:32.642Z,42.87
2018-03-07T18:14:08.112Z,44.53
2018-03-07T18:16:42.839Z,40.17
2018-03-07T18:19:17.951Z,44.22
2018-03-07T18:21:52.630Z,42.40
2018-03-07T18:24:27.676Z,42.97
2018-03-07T18:27:03.467Z,41.10
2018-03-07T18:29:38.637Z,43.97
2018-03-07T18:32:13.569Z,45.30
2018-03-07T18:34:48.271Z,45.37
2018-03-07T18:37:23.325Z,44.30
2018-03-07T18:39:57.948Z,45.47
2018-03-07T18:42:33.279Z,45.03
2018-03-07T18:45:08.516Z,47.20
2018-03-07T18:47:43.476Z,46.43
2018-03-07T18:50:18.476Z,45.42
2018-03-07T18:52:53.661Z,51.43
2018-03-07T18:55:28.378Z,49.47
2018-03-07T18:58:03.605Z,49.23
2018-03-07T19:00:38.669Z,48.23
2018-03-07T19:03:13.739Z,48.63
2018-03-07T19:05:48.856Z,49.53
2018-03-07T19:08:24.418Z,48.53
2018-03-07T19:10:59.535Z,48.90
2018-03-07T19:13:34.502Z,48.77
2018-03-07T19:16:09.671Z,48.80
2018-03-07T19:18:44.028Z,50.77
2018-03-07T19:21:19.477Z,47.33
2018-03-07T19:23:54.513Z,48.03
2018-03-07T19:26:29.858Z,47.00
2018-03-07T19:29:04.339Z,47.87
2018-03-07T19:31:38.507Z,48.07
2018-03-07T19:34:13.813Z,51.72
2018-03-07T19:36:48.982Z,52.97
2018-03-07T19:39:23.550Z,50.50
2018-03-07T19:41:58.691Z,51.10
2018-03-07T19:44:33.966Z,47.40
2018-03-07T19:47:09.434Z,49.70
2018-03-07T19:49:44.957Z,52.33
2018-03-07T19:52:20.743Z,51.47
2018-03-07T19:54:55.581Z,53.87
2018-03-07T19:57:30.614Z,51.83
2018-03-07T20:00:09.622Z,53.30
2018-03-07T20:02:44.502Z,52.80
2018-03-07T20:05:19.518Z,53.67
2018-03-07T20:07:54.309Z,51.17
2018-03-07T20:10:29.374Z,52.55
2018-03-07T20:13:04.521Z,52.30
2018-03-07T20:15:39.427Z,56.93
2018-03-07T20:18:14.516Z,57.25
2018-03-07T20:20:49.626Z,53.07
2018-03-07T20:23:23.978Z,53.00
2018-03-07T20:25:58.963Z,54.30
2018-03-07T20:28:34.347Z,57.05
2018-03-07T20:31:09.760Z,57.10
2018-03-07T20:33:44.854Z,56.33
2018-03-07T20:36:20.416Z,56.17
2018-03-07T20:38:55.524Z,54.13
2018-03-07T20:41:30.637Z,54.50
2018-03-07T20:44:05.552Z,56.97
2018-03-07T20:46:40.560Z,52.97
2018-03-07T20:49:15.650Z,56.40
2018-03-07T20:51:50.736Z,52.43
2018-03-07T20:54:25.661Z,54.70
2018-03-07T20:57:00.786Z,53.13
2018-03-07T20:59:35.863Z,56.53
2018-03-07T21:02:10.831Z,53.00
2018-03-07T21:04:45.812Z,57.00
2018-03-07T21:07:20.935Z,53.10
2018-03-07T21:09:56.051Z,51.67
2018-03-07T21:12:31.084Z,51.53
2018-03-07T21:15:05.843Z,47.33
2018-03-07T21:17:40.737Z,47.53
2018-03-07T21:20:15.607Z,48.42
2018-03-07T21:22:50.648Z,45.07
2018-03-07T21:25:25.007Z,48.20
2018-03-07T21:28:01.325Z,43.00
2018-03-07T21:30:36.190Z,43.20
2018-03-07T21:33:11.685Z,40.78
2018-03-07T21:35:46.773Z,38.37
2018-03-07T21:38:21.718Z,37.63
2018-03-07T21:40:56.787Z,37.20
2018-03-07T21:43:31.911Z,39.43
2018-03-07T21:46:07.385Z,38.77
2018-03-07T21:48:42.267Z,39.73
2018-03-07T21:51:16.962Z,34.47
2018-03-07T21:53:52.112Z,31.07
2018-03-07T21:56:27.090Z,27.90
2018-03-07T21:59:01.814Z,29.30
2018-03-07T22:01:36.755Z,27.20
2018-03-07T22:04:11.626Z,25.23
2018-03-07T22:06:46.884Z,23.83
2018-03-07T22:09:22.095Z,26.30
2018-03-07T22:11:57.584Z,28.65
2018-03-07T22:14:32.823Z,28.23
2018-03-07T22:17:07.974Z,27.37
2018-03-07T22:19:45.589Z,24.40
2018-03-07T22:22:20.717Z,24.10
2018-03-07T22:24:56.096Z,25.60
2018-03-07T22:27:30.911Z,24.43
2018-03-07T22:30:06.762Z,26.27
2018-03-07T22:32:41.610Z,26.23
2018-03-07T22:35:16.997Z,24.45
2018-03-07T22:37:51.984Z,20.70
2018-03-07T22:40:26.546Z,22.13
2018-03-07T22:43:02.007Z,23.83
2018-03-07T22:45:37.012Z,22.30
2018-03-07T22:48:13.503Z,21.37
2018-03-07T22:50:48.903Z,21.90
2018-03-07T22:53:23.785Z,20.20
2018-03-07T22:55:58.879Z,22.23
2018-03-07T22:58:33.867Z,20.27
2018-03-07T23:01:08.939Z,22.70
2018-03-07T23:03:43.771Z,23.80
2018-03-07T23:06:18.847Z,22.50
2018-03-07T23:08:53.889Z,22.20
2018-03-07T23:11:28.874Z,23.20
2018-03-07T23:14:04.210Z,20.13
2018-03-07T23:16:38.924Z,22.30
2018-03-07T23:19:14.192Z,21.15
2018-03-07T23:21:48.966Z,20.87
2018-03-07T23:24:24.054Z,20.30
2018-03-07T23:27:08.680Z,18.60
2018-03-07T23:29:43.188Z,19.30
2018-03-07T23:32:18.863Z,20.33
2018-03-07T23:34:53.887Z,19.55
2018-03-07T23:37:28.878Z,17.70
2018-03-07T23:40:04.026Z,17.70
2018-03-07T23:42:39.094Z,18.90
2018-03-07T23:45:14.017Z,20.30
2018-03-07T23:47:49.067Z,19.23
2018-03-07T23:50:24.293Z,18.83
2018-03-07T23:52:59.486Z,19.10
2018-03-07T23:55:34.258Z,18.70
2018-03-07T23:58:10.115Z,18.98
